createdAt,value
2018-11-14T00:01:01.890Z,15.53
2018-11-14T00:03:29.731Z,15.07
2018-11-14T00:05:57.552Z,15.93
2018-11-14T00:08:26.001Z,14.70
2018-11-14T00:10:53.842Z,15.47
2018-11-14T00:13:21.682Z,14.00
2018-11-14T00:15:49.515Z,16.40
2018-11-14T00:18:17.368Z,15.60
2018-11-14T00:20:45.199Z,15.30
2018-11-14T00:23:13.505Z,15.23
2018-11-14T00:25:41.608Z,14.60
2018-11-14T00:28:09.711Z,14.97
2018-11-14T00:30:37.592Z,14.20
2018-11-14T00:33:05.794Z,14.53
2018-11-14T00:35:33.710Z,14.60
2018-11-14T00:38:01.702Z,15.20
2018-11-14T00:40:29.568Z,14.13
2018-11-14T00:42:57.499Z,14.50
2018-11-14T00:45:25.375Z,13.57
2018-11-14T00:47:53.264Z,13.53
2018-11-14T00:50:21.616Z,13.53
2018-11-14T00:52:49.507Z,12.30
2018-11-14T00:55:19.443Z,13.20
2018-11-14T00:57:48.508Z,12.63
2018-11-14T01:00:18.031Z,12.50
2018-11-14T01:02:46.170Z,12.60
2018-11-14T01:05:15.215Z,13.93
2018-11-14T01:07:43.103Z,12.53
2018-11-14T01:10:12.174Z,13.23
2018-11-14T01:12:40.347Z,13.50
2018-11-14T01:15:09.632Z,13.83
2018-11-14T01:17:37.875Z,14.03
2018-11-14T01:20:06.251Z,13.90
2018-11-14T01:22:34.075Z,14.20
2018-11-14T01:25:01.912Z,13.57
2018-11-14T01:27:29.763Z,12.00
2018-11-14T01:29:57.613Z,12.30
2018-11-14T01:32:25.451Z,12.10
2018-11-14T01:34:53.298Z,10.90
2018-11-14T01:37:21.599Z,9.30
2018-11-14T01:39:49.424Z,8.83
2018-11-14T01:42:17.250Z,9.17
2018-11-14T01:44:45.107Z,8.63
2018-11-14T01:47:12.950Z,9.23
2018-11-14T01:49:40.763Z,8.73
2018-11-14T01:52:08.592Z,8.43
2018-11-14T01:54:36.427Z,8.57
2018-11-14T01:57:04.275Z,8.83
2018-11-14T01:59:32.101Z,8.43
2018-11-14T02:01:59.943Z,9.10
2018-11-14T02:04:27.762Z,8.93
2018-11-14T02:06:55.599Z,9.57
2018-11-14T02:09:24.032Z,9.60
2018-11-14T02:11:51.871Z,9.93
2018-11-14T02:14:19.695Z,9.97
2018-11-14T02:16:47.526Z,10.90
2018-11-14T02:19:15.369Z,11.00
2018-11-14T02:21:43.206Z,10.10
2018-11-14T02:24:11.050Z,10.97
2018-11-14T02:26:38.912Z,10.23
2018-11-14T02:29:06.754Z,11.27
2018-11-14T02:31:34.583Z,10.83
2018-11-14T02:34:02.456Z,11.67
2018-11-14T02:36:30.297Z,10.63
2018-11-14T02:38:58.140Z,11.40
2018-11-14T02:41:26.031Z,11.40
2018-11-14T02:43:53.905Z,10.43
2018-11-14T02:46:21.771Z,10.73
2018-11-14T02:48:49.775Z,10.93
2018-11-14T02:51:23.063Z,11.33
2018-11-14T02:53:50.887Z,10.30
2018-11-14T02:56:18.718Z,10.60
2018-11-14T02:58:46.554Z,9.30
2018-11-14T03:01:14.373Z,10.80
2018-11-14T03:03:42.250Z,9.50
2018-11-14T03:06:10.097Z,9.20
2018-11-14T03:08:38.316Z,9.33
2018-11-14T03:11:06.874Z,9.33
2018-11-14T03:13:34.770Z,8.97
2018-11-14T03:16:02.639Z,9.40
2018-11-14T03:18:30.472Z,8.57
2018-11-14T03:20:58.306Z,7.83
2018-11-14T03:23:26.222Z,8.80
2018-11-14T03:25:54.036Z,8.63
2018-11-14T03:28:21.866Z,8.27
2018-11-14T03:30:49.687Z,8.83
2018-11-14T03:33:17.532Z,8.57
2018-11-14T03:35:50.636Z,9.07
2018-11-14T03:38:18.470Z,9.40
2018-11-14T03:40:46.372Z,8.03
2018-11-14T03:43:14.230Z,8.60
2018-11-14T03:45:42.776Z,9.03
2018-11-14T03:48:10.625Z,9.83
2018-11-14T03:50:38.447Z,9.50
2018-11-14T03:53:06.419Z,10.80
2018-11-14T03:55:34.450Z,10.57
2018-11-14T03:58:03.004Z,11.93
2018-11-14T04:00:31.651Z,12.10
2018-11-14T04:03:00.070Z,12.17
2018-11-14T04:05:27.967Z,10.77
2018-11-14T04:07:56.487Z,11.73
2018-11-14T04:10:25.008Z,10.63
2018-11-14T04:12:52.840Z,10.73
2018-11-14T04:15:21.307Z,10.83
2018-11-14T04:17:49.782Z,8.87
2018-11-14T04:20:18.442Z,8.53
2018-11-14T04:22:47.032Z,8.07
2018-11-14T04:25:17.875Z,8.33
2018-11-14T04:27:46.519Z,7.27
2018-11-14T04:30:15.660Z,7.50
2018-11-14T04:32:44.587Z,7.50
2018-11-14T04:35:13.603Z,6.67
2018-11-14T04:37:41.428Z,5.67
2018-11-14T04:40:11.247Z,6.67
2018-11-14T04:42:39.429Z,5.87
2018-11-14T04:45:08.181Z,5.93
2018-11-14T04:47:36.392Z,6.17
2018-11-14T04:50:04.637Z,6.27
2018-11-14T04:52:32.479Z,5.57
2018-11-14T04:55:00.310Z,5.97
2018-11-14T04:57:28.155Z,5.30
2018-11-14T04:59:55.990Z,5.50
2018-11-14T05:02:24.202Z,5.73
2018-11-14T05:04:52.647Z,5.40
2018-11-14T05:07:21.278Z,6.27
2018-11-14T05:09:49.118Z,5.43
2018-11-14T05:12:16.968Z,5.73
2018-11-14T05:14:44.892Z,5.30
2018-11-14T05:17:12.729Z,5.57
2018-11-14T05:19:40.783Z,5.00
2018-11-14T05:22:08.751Z,5.63
2018-11-14T05:24:36.794Z,5.77
2018-11-14T05:27:04.709Z,5.33
2018-11-14T05:29:32.535Z,5.90
2018-11-14T05:32:00.455Z,5.87
2018-11-14T05:34:28.261Z,6.33
2018-11-14T05:36:56.338Z,7.07
2018-11-14T05:39:24.186Z,6.40
2018-11-14T05:41:52.016Z,6.03
2018-11-14T05:44:19.942Z,6.43
2018-11-14T05:46:47.961Z,6.37
2018-11-14T05:49:16.531Z,8.63
2018-11-14T05:51:44.952Z,6.70
2018-11-14T05:54:13.623Z,5.77
2018-11-14T05:56:42.228Z,6.47
2018-11-14T05:59:10.636Z,7.10
2018-11-14T06:01:38.466Z,6.97
2018-11-14T06:04:07.021Z,7.63
2018-11-14T06:06:34.852Z,7.17
2018-11-14T06:09:03.365Z,6.63
2018-11-14T06:11:31.192Z,10.30
2018-11-14T06:13:59.037Z,5.97
2018-11-14T06:16:26.878Z,7.80
2018-11-14T06:18:54.699Z,6.10
2018-11-14T06:21:22.533Z,7.10
2018-11-14T06:23:50.391Z,7.17
2018-11-14T06:26:18.477Z,6.83
2018-11-14T06:28:46.317Z,6.90
2018-11-14T06:31:14.151Z,7.63
2018-11-14T06:33:42.745Z,7.17
2018-11-14T06:36:11.320Z,7.50
2018-11-14T06:38:39.792Z,7.10
2018-11-14T06:41:08.451Z,7.27
2018-11-14T06:43:36.679Z,7.10
2018-11-14T06:46:05.120Z,7.03
2018-11-14T06:48:33.756Z,7.83
2018-11-14T06:51:02.389Z,8.30
2018-11-14T06:53:30.832Z,8.07
2018-11-14T06:55:59.525Z,7.87
2018-11-14T06:58:27.915Z,8.23
2018-11-14T07:00:55.752Z,7.90
2018-11-14T07:03:23.820Z,8.43
2018-11-14T07:05:51.856Z,8.03
2018-11-14T07:08:19.774Z,7.67
2018-11-14T07:10:47.609Z,8.13
2018-11-14T07:13:15.443Z,8.70
2018-11-14T07:15:43.637Z,8.37
2018-11-14T07:18:12.255Z,7.37
2018-11-14T07:20:42.577Z,8.13
2018-11-14T07:23:10.434Z,8.37
2018-11-14T07:25:38.287Z,7.17
2018-11-14T07:28:06.153Z,8.80
2018-11-14T07:30:34.843Z,7.73
2018-11-14T07:33:04.073Z,11.47
2018-11-14T07:35:31.903Z,7.63
2018-11-14T07:38:34.283Z,7.60
2018-11-14T07:41:03.520Z,6.90
2018-11-14T07:43:31.776Z,7.77
2018-11-14T07:45:59.619Z,8.77
2018-11-14T07:48:27.463Z,7.77
2018-11-14T07:50:55.308Z,8.07
2018-11-14T07:53:23.218Z,7.63
2018-11-14T07:55:51.106Z,8.70
2018-11-14T07:58:18.936Z,8.83
2018-11-14T08:00:46.822Z,8.17
2018-11-14T08:03:14.681Z,8.93
2018-11-14T08:05:42.530Z,7.73
2018-11-14T08:08:10.427Z,8.47
2018-11-14T08:10:38.253Z,7.57
2018-11-14T08:13:06.196Z,8.40
2018-11-14T08:15:34.054Z,7.77
2018-11-14T08:18:01.900Z,9.20
2018-11-14T08:20:29.743Z,7.73
2018-11-14T08:22:57.628Z,8.27
2018-11-14T08:25:31.892Z,8.60
2018-11-14T08:27:59.755Z,9.40
2018-11-14T08:30:28.366Z,9.07
2018-11-14T08:32:56.648Z,8.73
2018-11-14T08:35:24.479Z,9.43
2018-11-14T08:37:52.403Z,10.10
2018-11-14T08:40:20.231Z,8.73
2018-11-14T08:42:48.065Z,9.47
2018-11-14T08:45:15.896Z,8.20
2018-11-14T08:47:43.751Z,9.23
2018-11-14T08:50:13.573Z,8.83
2018-11-14T08:52:42.183Z,8.90
2018-11-14T08:55:11.031Z,8.70
2018-11-14T08:57:39.837Z,8.93
2018-11-14T09:00:09.795Z,8.53
2018-11-14T09:02:37.647Z,8.90
2018-11-14T09:05:06.149Z,8.80
2018-11-14T09:07:34.733Z,9.03
2018-11-14T09:10:03.332Z,9.20
2018-11-14T09:12:32.063Z,8.90
2018-11-14T09:15:00.792Z,9.77
2018-11-14T09:17:29.447Z,8.13
2018-11-14T09:19:58.083Z,8.37
2018-11-14T09:22:26.192Z,9.00
2018-11-14T09:24:54.065Z,9.33
2018-11-14T09:27:22.625Z,8.70
2018-11-14T09:29:51.044Z,7.90
2018-11-14T09:32:19.686Z,8.23
2018-11-14T09:34:48.352Z,8.40
2018-11-14T09:37:16.784Z,8.53
2018-11-14T09:39:45.400Z,8.40
2018-11-14T09:42:14.035Z,8.67
2018-11-14T09:44:42.680Z,9.10
2018-11-14T09:47:11.327Z,9.63
2018-11-14T09:49:39.952Z,10.10
2018-11-14T09:52:08.406Z,9.10
2018-11-14T09:54:36.440Z,9.37
2018-11-14T09:57:04.374Z,9.50
2018-11-14T09:59:32.183Z,10.33
2018-11-14T10:02:00.532Z,8.00
2018-11-14T10:04:28.364Z,8.00
2018-11-14T10:06:56.234Z,8.47
2018-11-14T10:09:24.114Z,9.73
2018-11-14T10:11:52.761Z,9.47
2018-11-14T10:14:21.428Z,8.47
2018-11-14T10:16:49.538Z,8.93
2018-11-14T10:19:17.400Z,8.50
2018-11-14T10:21:45.239Z,8.93
2018-11-14T10:24:13.778Z,9.70
2018-11-14T10:26:41.618Z,9.43
2018-11-14T10:29:10.070Z,9.10
2018-11-14T10:31:38.771Z,9.13
2018-11-14T10:34:07.187Z,10.40
2018-11-14T10:36:35.563Z,9.77
2018-11-14T10:39:04.722Z,10.90
2018-11-14T10:41:32.625Z,10.00
2018-11-14T10:44:00.473Z,11.53
2018-11-14T10:46:28.302Z,11.13
2018-11-14T10:48:56.142Z,12.30
2018-11-14T10:51:23.994Z,11.70
2018-11-14T10:53:52.532Z,11.80
2018-11-14T10:56:20.431Z,11.17
2018-11-14T10:58:48.377Z,11.07
2018-11-14T11:01:21.542Z,11.13
2018-11-14T11:03:54.957Z,11.83
2018-11-14T11:06:35.252Z,11.33
2018-11-14T11:09:09.036Z,11.93
2018-11-14T11:11:42.517Z,12.47
2018-11-14T11:14:15.424Z,11.83
2018-11-14T11:16:48.835Z,12.73
2018-11-14T11:19:18.431Z,12.20
2018-11-14T11:21:47.153Z,12.67
2018-11-14T11:24:16.627Z,12.37
2018-11-14T11:26:45.104Z,12.87
2018-11-14T11:29:13.511Z,12.97
2018-11-14T11:31:41.401Z,12.90
2018-11-14T11:34:10.096Z,12.70
2018-11-14T11:36:38.472Z,13.20
2018-11-14T11:39:09.868Z,13.87
2018-11-14T11:41:38.286Z,13.97
2018-11-14T11:44:06.643Z,14.10
2018-11-14T11:46:34.715Z,12.23
2018-11-14T11:49:02.603Z,13.50
2018-11-14T11:51:30.544Z,13.23
2018-11-14T11:53:58.806Z,13.97
2018-11-14T11:56:26.665Z,13.43
2018-11-14T11:58:55.279Z,14.10
2018-11-14T12:01:23.852Z,14.00
2018-11-14T12:03:52.496Z,15.43
2018-11-14T12:06:20.901Z,15.67
2018-11-14T12:08:48.773Z,14.67
2018-11-14T12:11:16.689Z,15.10
2018-11-14T12:13:45.310Z,15.07
2018-11-14T12:16:13.220Z,15.43
2018-11-14T12:18:41.766Z,14.53
2018-11-14T12:21:10.376Z,14.77
2018-11-14T12:23:39.068Z,13.20
2018-11-14T12:26:06.974Z,13.00
2018-11-14T12:28:34.840Z,12.73
2018-11-14T12:31:02.880Z,13.53
2018-11-14T12:33:30.631Z,13.10
2018-11-14T12:35:58.503Z,13.10
2018-11-14T12:38:26.396Z,14.33
2018-11-14T12:40:54.248Z,13.87
2018-11-14T12:43:22.100Z,14.57
2018-11-14T12:45:49.971Z,13.60
2018-11-14T12:48:19.342Z,13.57
2018-11-14T12:50:47.345Z,13.93
2018-11-14T12:53:15.194Z,12.83
2018-11-14T12:55:43.103Z,13.60
2018-11-14T12:58:10.988Z,12.83
2018-11-14T13:00:38.836Z,13.80
2018-11-14T13:03:06.683Z,13.20
2018-11-14T13:05:34.750Z,13.17
2018-11-14T13:08:02.609Z,12.57
2018-11-14T13:10:30.467Z,13.40
2018-11-14T13:12:58.326Z,12.50
2018-11-14T13:15:26.191Z,12.97
2018-11-14T13:17:54.068Z,12.50
2018-11-14T13:20:23.347Z,12.27
2018-11-14T13:22:51.239Z,13.77
2018-11-14T13:25:19.133Z,13.53
2018-11-14T13:27:47.910Z,12.50
2018-11-14T13:30:17.034Z,12.57
2018-11-14T13:32:46.002Z,12.40
2018-11-14T13:35:15.495Z,12.40
2018-11-14T13:37:44.765Z,12.00
2018-11-14T13:40:13.550Z,12.33
2018-11-14T13:42:42.190Z,13.10
2018-11-14T13:45:11.744Z,12.07
2018-11-14T13:47:40.543Z,12.10
2018-11-14T13:50:10.544Z,11.97
2018-11-14T13:52:38.683Z,12.00
2018-11-14T13:55:07.135Z,11.77
2018-11-14T13:57:35.038Z,12.77
2018-11-14T14:00:03.023Z,11.50
2018-11-14T14:02:30.899Z,11.77
2018-11-14T14:04:58.753Z,12.47
2018-11-14T14:07:26.580Z,12.07
2018-11-14T14:09:54.433Z,12.30
2018-11-14T14:12:22.286Z,11.37
2018-11-14T14:14:50.293Z,11.90
2018-11-14T14:17:18.159Z,12.97
2018-11-14T14:19:46.028Z,11.23
2018-11-14T14:22:13.894Z,13.03
2018-11-14T14:24:42.131Z,11.97
2018-11-14T14:27:10.013Z,11.80
2018-11-14T14:29:37.968Z,12.10
2018-11-14T14:32:05.904Z,11.43
2018-11-14T14:34:33.776Z,12.40
2018-11-14T14:37:01.609Z,12.67
2018-11-14T14:39:29.471Z,12.83
2018-11-14T14:41:57.318Z,11.83
2018-11-14T14:44:25.147Z,11.20
2018-11-14T14:46:53.075Z,11.17
2018-11-14T14:49:20.920Z,11.97
2018-11-14T14:51:48.808Z,11.30
2018-11-14T14:54:16.676Z,11.40
2018-11-14T14:56:44.537Z,11.13
2018-11-14T14:59:12.417Z,13.03
2018-11-14T15:01:40.271Z,12.50
2018-11-14T15:04:08.204Z,12.23
2018-11-14T15:06:36.044Z,11.43
2018-11-14T15:09:04.823Z,12.20
2018-11-14T15:11:32.680Z,11.73
2018-11-14T15:14:00.659Z,11.97
2018-11-14T15:16:28.551Z,12.40
2018-11-14T15:18:56.548Z,12.77
2018-11-14T15:21:24.392Z,12.20
2018-11-14T15:23:52.236Z,13.03
2018-11-14T15:26:20.135Z,12.37
2018-11-14T15:28:48.154Z,12.93
2018-11-14T15:31:16.005Z,12.50
2018-11-14T15:33:43.891Z,12.60
2018-11-14T15:36:11.861Z,12.57
2018-11-14T15:38:40.179Z,11.80
2018-11-14T15:41:08.460Z,12.90
2018-11-14T15:43:36.329Z,12.73
2018-11-14T15:46:04.984Z,13.27
2018-11-14T15:48:33.571Z,12.80
2018-11-14T15:51:02.240Z,14.03
2018-11-14T15:53:30.619Z,13.57
2018-11-14T15:55:58.853Z,12.70
2018-11-14T15:58:27.373Z,13.33
2018-11-14T16:00:56.001Z,12.43
2018-11-14T16:03:24.596Z,12.70
2018-11-14T16:05:52.813Z,13.27
2018-11-14T16:08:21.302Z,12.53
2018-11-14T16:10:49.933Z,13.43
2018-11-14T16:13:18.355Z,13.60
2018-11-14T16:15:47.042Z,13.00
2018-11-14T16:18:15.681Z,14.80
2018-11-14T16:20:44.121Z,13.10
2018-11-14T16:23:12.723Z,14.03
2018-11-14T16:25:41.375Z,13.43
2018-11-14T16:28:10.002Z,13.87
2018-11-14T16:30:38.799Z,12.63
2018-11-14T16:33:08.859Z,13.43
2018-11-14T16:35:37.592Z,14.07
2018-11-14T16:38:05.959Z,12.30
2018-11-14T16:40:38.141Z,12.43
2018-11-14T16:43:07.568Z,14.57
2018-11-14T16:45:36.163Z,13.60
2018-11-14T16:48:04.594Z,14.47
2018-11-14T16:50:33.317Z,14.03
2018-11-14T16:53:01.972Z,13.77
2018-11-14T16:55:30.700Z,14.43
2018-11-14T16:57:59.159Z,14.27
2018-11-14T17:00:28.741Z,13.87
2018-11-14T17:02:57.763Z,14.80
2018-11-14T17:05:27.376Z,13.60
2018-11-14T17:07:55.210Z,13.57
2018-11-14T17:10:23.490Z,13.83
2018-11-14T17:12:52.952Z,14.13
2018-11-14T17:15:22.869Z,13.87
2018-11-14T17:17:50.722Z,14.00
2018-11-14T17:20:19.338Z,14.47
2018-11-14T17:22:48.336Z,14.07
2018-11-14T17:25:17.196Z,14.60
2018-11-14T17:27:45.902Z,15.20
2018-11-14T17:30:15.564Z,15.17
2018-11-14T17:32:44.261Z,15.03
2018-11-14T17:35:13.303Z,15.23
2018-11-14T17:37:42.542Z,15.47
2018-11-14T17:40:13.604Z,15.20
2018-11-14T17:42:42.790Z,15.60
2018-11-14T17:45:12.055Z,14.70
2018-11-14T17:47:39.972Z,15.57
2018-11-14T17:50:12.514Z,14.87
2018-11-14T17:52:40.719Z,15.03
2018-11-14T17:55:09.996Z,14.97
2018-11-14T17:57:38.401Z,15.87
2018-11-14T18:00:07.338Z,17.20
2018-11-14T18:02:35.644Z,16.23
2018-11-14T18:05:04.156Z,15.77
2018-11-14T18:07:32.759Z,15.20
2018-11-14T18:10:00.676Z,15.97
2018-11-14T18:12:28.793Z,15.00
2018-11-14T18:14:56.641Z,14.90
2018-11-14T18:17:24.488Z,16.10
2018-11-14T18:19:52.332Z,16.30
2018-11-14T18:22:20.185Z,15.80
2018-11-14T18:24:48.100Z,15.10
2018-11-14T18:27:16.546Z,15.17
2018-11-14T18:29:45.012Z,14.80
2018-11-14T18:32:12.975Z,14.90
2018-11-14T18:34:41.632Z,15.60
2018-11-14T18:37:10.073Z,16.37
2018-11-14T18:39:39.013Z,17.73
2018-11-14T18:42:07.383Z,15.93
2018-11-14T18:44:35.784Z,16.70
2018-11-14T18:47:03.627Z,16.77
2018-11-14T18:49:31.468Z,17.37
2018-11-14T18:52:00.319Z,15.60
2018-11-14T18:54:28.167Z,16.13
2018-11-14T18:56:56.035Z,15.43
2018-11-14T18:59:23.896Z,16.37
2018-11-14T19:01:52.023Z,15.70
2018-11-14T19:04:20.383Z,17.73
2018-11-14T19:06:48.314Z,16.17
2018-11-14T19:09:16.127Z,16.47
2018-11-14T19:11:43.963Z,16.97
2018-11-14T19:14:11.862Z,15.87
2018-11-14T19:16:39.700Z,15.47
2018-11-14T19:19:07.639Z,15.67
2018-11-14T19:21:36.595Z,16.30
2018-11-14T19:24:04.455Z,15.83
2018-11-14T19:26:32.291Z,17.03
2018-11-14T19:29:00.143Z,16.70
2018-11-14T19:31:28.711Z,17.63
2018-11-14T19:33:56.554Z,16.83
2018-11-14T19:36:24.405Z,17.37
2018-11-14T19:38:52.257Z,15.50
2018-11-14T19:41:20.101Z,17.83
2018-11-14T19:43:47.958Z,16.90
2018-11-14T19:46:15.948Z,17.43
2018-11-14T19:48:43.879Z,16.97
2018-11-14T19:51:12.105Z,17.40
2018-11-14T19:53:40.043Z,17.13
2018-11-14T19:56:07.899Z,18.67
2018-11-14T19:58:35.744Z,18.03
2018-11-14T20:01:03.937Z,17.20
2018-11-14T20:03:31.795Z,17.43
2018-11-14T20:05:59.631Z,18.40
2018-11-14T20:08:27.481Z,19.07
2018-11-14T20:10:55.338Z,20.03
2018-11-14T20:13:24.506Z,18.87
2018-11-14T20:15:53.151Z,20.17
2018-11-14T20:18:21.471Z,19.83
2018-11-14T20:20:50.542Z,18.77
2018-11-14T20:23:20.351Z,18.97
2018-11-14T20:25:49.170Z,20.47
2018-11-14T20:28:17.748Z,19.57
2018-11-14T20:30:45.609Z,19.73
2018-11-14T20:33:14.181Z,21.03
2018-11-14T20:35:42.194Z,21.77
2018-11-14T20:38:10.474Z,21.37
2018-11-14T20:40:39.553Z,21.00
2018-11-14T20:43:08.429Z,22.53
2018-11-14T20:45:36.991Z,22.07
2018-11-14T20:48:05.305Z,21.20
2018-11-14T20:50:33.912Z,20.17
2018-11-14T20:53:03.586Z,18.73
2018-11-14T20:55:32.911Z,19.20
2018-11-14T20:58:01.818Z,19.73
2018-11-14T21:00:35.855Z,19.80
2018-11-14T21:03:03.815Z,19.27
2018-11-14T21:05:33.758Z,19.60
2018-11-14T21:08:02.082Z,18.37
2018-11-14T21:10:31.445Z,19.00
2018-11-14T21:13:00.545Z,18.30
2018-11-14T21:15:30.052Z,18.70
2018-11-14T21:17:58.977Z,19.27
2018-11-14T21:20:26.851Z,20.87
2018-11-14T21:22:54.882Z,19.93
2018-11-14T21:25:24.344Z,19.60
2018-11-14T21:27:53.395Z,19.87
2018-11-14T21:30:22.811Z,18.77
2018-11-14T21:32:51.310Z,18.83
2018-11-14T21:35:23.704Z,18.97
2018-11-14T21:37:53.580Z,19.37
2018-11-14T21:40:21.427Z,20.20
2018-11-14T21:42:49.335Z,20.03
2018-11-14T21:45:19.332Z,22.53
2018-11-14T21:47:52.537Z,21.37
2018-11-14T21:50:21.925Z,21.63
2018-11-14T21:52:50.432Z,19.90
2018-11-14T21:55:18.834Z,20.07
2018-11-14T21:57:47.303Z,20.27
2018-11-14T22:00:17.538Z,19.33
2018-11-14T22:02:47.362Z,19.27
2018-11-14T22:05:15.972Z,20.03
2018-11-14T22:07:44.607Z,20.23
2018-11-14T22:10:14.399Z,20.30
2018-11-14T22:12:43.456Z,20.07
2018-11-14T22:15:11.810Z,19.50
2018-11-14T22:17:40.220Z,20.17
2018-11-14T22:20:09.351Z,19.50
2018-11-14T22:22:37.241Z,18.87
2018-11-14T22:25:05.185Z,20.87
2018-11-14T22:27:33.529Z,20.00
2018-11-14T22:30:01.402Z,19.90
2018-11-14T22:32:29.364Z,20.43
2018-11-14T22:34:58.367Z,20.60
2018-11-14T22:37:26.089Z,20.23
2018-11-14T22:39:54.032Z,21.47
2018-11-14T22:42:22.848Z,20.80
2018-11-14T22:44:51.171Z,19.07
2018-11-14T22:47:19.829Z,20.73
2018-11-14T22:49:48.860Z,20.83
2018-11-14T22:52:16.756Z,19.47
2018-11-14T22:54:45.352Z,20.17
2018-11-14T22:57:13.205Z,20.43
2018-11-14T22:59:41.333Z,20.20
2018-11-14T23:02:09.861Z,20.97
2018-11-14T23:04:38.093Z,20.27
2018-11-14T23:07:06.464Z,19.37
2018-11-14T23:09:35.137Z,19.80
2018-11-14T23:12:03.669Z,19.33
2018-11-14T23:14:32.059Z,19.73
2018-11-14T23:17:00.528Z,18.67
2018-11-14T23:19:29.136Z,20.43
2018-11-14T23:21:57.263Z,19.97
2018-11-14T23:24:25.115Z,20.80
2018-11-14T23:26:53.177Z,18.20
2018-11-14T23:29:21.016Z,19.87
2018-11-14T23:31:48.891Z,19.03
2018-11-14T23:34:16.743Z,19.47
2018-11-14T23:36:44.583Z,21.33
2018-11-14T23:39:14.016Z,19.97
2018-11-14T23:41:41.850Z,18.67
2018-11-14T23:44:10.607Z,20.00
2018-11-14T23:46:38.435Z,19.90
2018-11-14T23:49:07.072Z,20.13
2018-11-14T23:51:35.536Z,18.47
2018-11-14T23:54:04.171Z,19.47
2018-11-14T23:56:32.579Z,19.67
2018-11-14T23:59:00.406Z,18.63
